Flight Track Log - Related Links

Times and Time Zones

All times are in EDT time to prevent confusion due to time zone crossing. See the NKS331 flight status page for this flight to view local times or setup timezone preferences in your user account.

Time Position Orientation Groundspeed Altitude Reporting Facility
EDT Latitude Longitude Course Direction KTS MPH feet Rate Location/Type
Tue 10:00:01 PM 40.8000 -73.8500 299° West 155 178 1,500  Level New TRACON
Tue 10:00:55 PM 40.8500 -73.8167 27° Northeast 212 244 2,800 2,503 Climbing New TRACON
Tue 10:03:08 PM 40.9533 -73.9061 327° Northwest 214 246 9,300 2,642 Climbing New Center
Tue 10:04:08 PM 40.9889 -73.9819 302° West 258 297 11,300 2,150 Climbing New Center
Tue 10:05:00 PM 41.0101 -74.3974 299° West  Level FlightAware
Tue 10:05:08 PM 41.0144 -74.1067 285° West 308 354 13,600  Level New Center
Tue 10:06:08 PM 41.0383 -74.2233 285° West 334 384 15,800 1,200 Climbing New Center
Tue 10:07:08 PM 41.0639 -74.3403 286° West 339 390 16,000 100 Climbing New Center
Tue 10:08:08 PM 41.0836 -74.4433 284° West 307 353 16,000 350 Level New Center
Tue 10:09:08 PM 41.1053 -74.5464 286° West 291 335 16,700 500 Climbing New Center
Tue 10:10:08 PM 41.1253 -74.6383 286° West 286 329 17,000 550 Climbing New Center
Tue 10:11:08 PM 41.1572 -74.7447 292° West 286 329 17,800 1,350 Climbing New Center
Tue 10:12:08 PM 41.2000 -74.8356 302° West 294 338 19,700 1,850 Climbing New Center
Tue 10:13:08 PM 41.2422 -74.9403 298° West 301 346 21,500 1,408 Climbing New Center
Tue 10:19:10 PM 41.5360 -75.6920 291° West 387 445 29,600 1,354 Climbing FlightAware
Tue 10:19:38 PM 41.5540 -75.7560 292° West 387 445 30,300 1,500 Climbing FlightAware
Tue 10:21:50 PM 41.6330 -76.0340 291° West 366 421 33,600 1,257 Climbing FlightAware
Tue 10:22:25 PM 41.6510 -76.0990 291° West 373 429 33,800 646 Climbing FlightAware
Tue 10:22:55 PM 41.6720 -76.1740 291° West 373 429 34,300 750 Climbing FlightAware
Tue 10:23:21 PM 41.6870 -76.2280 291° West 380 437 34,500 537 Climbing FlightAware
Tue 10:24:02 PM 41.7130 -76.3190 291° West 384 442 34,900 771 Climbing FlightAware
Tue 10:24:31 PM 41.7320 -76.3860 291° West 385 443 35,400 915 Climbing FlightAware
Tue 10:25:01 PM 41.7500 -76.4530 291° West 386 444 35,800 537 Climbing FlightAware
Tue 10:25:38 PM 41.7730 -76.5330 291° West 386 444 36,000 167 Climbing FlightAware
Tue 10:26:13 PM 41.7950 -76.6120 291° West 386 444 36,000  Level FlightAware
Tue 10:26:43 PM 41.8130 -76.6800 291° West 388 447 36,000  Level FlightAware
Tue 10:27:14 PM 41.8320 -76.7490 291° West 391 450 36,000  Level FlightAware
Tue 10:27:49 PM 41.8540 -76.8290 291° West 390 449 36,000  Level FlightAware
Tue 10:28:16 PM 41.8586 -76.8445 290° West 388 447 36,000  Level FlightAware (KPHL)
Tue 10:28:19 PM 41.8730 -76.8970 290° West 389 448 36,000  Level FlightAware
Tue 10:28:38 PM 41.8820 -76.9311 290° West 387 445 36,000  Level FlightAware (CYYZ)
Tue 10:28:49 PM 41.8910 -76.9640 291° West 388 447 36,000  Level FlightAware
Tue 10:29:08 PM 41.9014 -77.0025 291° West 385 443 36,000  Level FlightAware (CYYZ)
Tue 10:29:19 PM 41.9090 -77.0310 290° West 386 444 36,000  Level FlightAware
Tue 10:29:37 PM 41.9186 -77.0658 290° West 384 442 36,000  Level FlightAware (CYYZ)
Tue 10:29:48 PM 41.9270 -77.0960 291° West 385 443 36,000  Level FlightAware
Tue 10:30:25 PM 41.9490 -77.1800 290° West 384 442 36,000  Level FlightAware
Tue 10:30:33 PM 41.9501 -77.1830 290° West 384 442 36,000  Level FlightAware (CYYZ)
Tue 10:31:01 PM 41.9710 -77.2600 290° West 387 445 36,000  Level FlightAware
Tue 10:31:03 PM 41.9666 -77.2442 290° West 386 444 36,000  Level FlightAware (CYYZ)
Tue 10:31:37 PM 41.9930 -77.3420 290° West 389 448 36,000  Level FlightAware
Tue 10:31:47 PM 41.9987 -77.3643 290° West 389 448 36,000  Level FlightAware (CYYZ)
Tue 10:32:13 PM 42.0140 -77.4230 290° West 390 449 36,000  Level FlightAware
Tue 10:32:17 PM 42.0126 -77.4165 290° West 389 448 36,000  Level FlightAware (CYYZ)
Tue 10:32:46 PM 42.0348 -77.4982 291° West 393 452 36,000  Level FlightAware (CYYZ)
Tue 10:32:49 PM 42.0370 -77.5050 291° West 395 455 36,000  Level FlightAware
Tue 10:33:17 PM 42.0525 -77.5625 291° West 396 456 36,000  Level FlightAware (CYYZ)
Tue 10:33:19 PM 42.0560 -77.5740 291° West 397 457 36,000  Level FlightAware
Tue 10:33:47 PM 42.0630 -77.6016 290° West 397 457 36,000  Level FlightAware (CYYZ)
Tue 10:33:49 PM 42.0750 -77.6440 291° West 400 460 36,000  Level FlightAware
Tue 10:34:17 PM 42.0893 -77.6986 290° West 401 461 36,000  Level FlightAware (CYYZ)
Tue 10:34:26 PM 42.0970 -77.7290 291° West 403 464 36,000  Level FlightAware
Tue 10:34:48 PM 42.1083 -77.7695 290° West 402 463 36,000  Level FlightAware (CYYZ)
Tue 10:35:01 PM 42.1200 -77.8130 290° West 406 467 36,000  Level FlightAware
Tue 10:35:18 PM 42.1297 -77.8494 290° West 406 467 36,000  Level FlightAware (CYYZ)
Tue 10:35:38 PM 42.1430 -77.8990 290° West 408 470 36,000  Level FlightAware
Tue 10:35:47 PM 42.1489 -77.9209 290° West 407 468 36,000  Level FlightAware (CYYZ)
Tue 10:36:13 PM 42.1660 -77.9850 291° West 410 472 36,000  Level FlightAware
Tue 10:36:18 PM 42.1685 -77.9938 290° West 410 472 36,000  Level FlightAware (CYYZ)
Tue 10:36:47 PM 42.1879 -78.0663 290° West 409 471 36,000  Level FlightAware (CYYZ)
Tue 10:36:49 PM 42.1890 -78.0700 290° West 411 473 36,000  Level FlightAware
Tue 10:37:18 PM 42.2056 -78.1326 290° West 409 471 36,000  Level FlightAware (CYYZ)
Tue 10:37:31 PM 42.2142 -78.1652 289° West 409 471 36,000  Level FlightAware (EPLB / LUZ)
Tue 10:37:47 PM 42.2257 -78.2088 290° West 408 470 36,000  Level FlightAware (CYYZ)
Tue 10:38:18 PM 42.2443 -78.2793 290° West 407 468 36,000  Level FlightAware (CYYZ)
Tue 10:38:27 PM 42.2498 -78.3004 289° West 407 468 36,000  Level FlightAware (EPLB / LUZ)
Tue 10:38:48 PM 42.2628 -78.3521 289° West 405 466 36,000  Level FlightAware (CYYZ)
Tue 10:39:18 PM 42.2802 -78.4235 289° West 405 466 36,000  Level FlightAware (CYYZ)
Tue 10:39:48 PM 42.2983 -78.4974 289° West 405 466 36,000  Level FlightAware (CYYZ)
Tue 10:40:17 PM 42.3159 -78.5690 289° West 407 468 36,000  Level FlightAware (CYYZ)
Tue 10:40:47 PM 42.3337 -78.6418 289° West 407 468 36,000  Level FlightAware (CYYZ)
Tue 10:41:17 PM 42.3516 -78.7144 289° West 409 471 36,000  Level FlightAware (CYYZ)
Tue 10:41:47 PM 42.3692 -78.7863 289° West 410 472 36,000  Level FlightAware (CYYZ)
Tue 10:42:17 PM 42.3872 -78.8601 288° West 408 470 36,000 122 Level FlightAware (CYYZ)
Tue 10:42:36 PM 42.3893 -78.8697 283° West 404 465 36,100  Climbing FlightAware (EPLB / LUZ)
Tue 10:42:47 PM 42.3998 -78.9320 280° West 399 459 36,000 -158 Descending FlightAware (CYYZ)
Tue 10:43:14 PM 42.4054 -78.9975 275° West 396 456 36,000  Level FlightAware (EPLB / LUZ)
Tue 10:43:37 PM 42.4092 -79.0560 276° West 396 456 36,000  Level FlightAware (CYYZ)
Tue 10:43:54 PM 42.4118 -79.0954 275° West 397 457 36,000  Level FlightAware (EPLB / LUZ)
Tue 10:44:07 PM 42.4141 -79.1302 276° West 396 456 36,000  Level FlightAware (CYYZ)
Tue 10:44:25 PM 42.4152 -79.1469 275° West 397 457 36,000  Level FlightAware (EPLB / LUZ)
Tue 10:44:38 PM 42.4189 -79.2029 276° West 397 457 36,000  Level FlightAware (CYYZ)
Tue 10:45:06 PM 42.4226 -79.2607 275° West 399 459 36,000  Level FlightAware (EPLB / LUZ)
Tue 10:45:08 PM 42.4238 -79.2794 275° West 399 459 36,000  Level FlightAware (CYYZ)
Tue 10:45:37 PM 42.4282 -79.3523 275° West 400 460 36,000  Level FlightAware (CYYZ)
Tue 10:45:38 PM 42.4283 -79.3534 275° West 400 460 36,000  Level FlightAware (EPLB / LUZ)
Tue 10:46:07 PM 42.4329 -79.4272 275° West 401 461 36,000  Level FlightAware (CYYZ)
Tue 10:46:18 PM 42.4346 -79.4545 275° West 403 464 36,000  Level FlightAware (EPLB / LUZ)
Tue 10:46:37 PM 42.4378 -79.5031 275° West 403 464 36,000  Level FlightAware (CYYZ)
Tue 10:46:50 PM 42.4394 -79.5296 275° West 403 464 36,000  Level FlightAware (EPLB / LUZ)
Tue 10:47:08 PM 42.4424 -79.5783 275° West 403 464 36,000  Level FlightAware (CYYZ)
Tue 10:47:30 PM 42.4458 -79.6329 275° West 404 465 36,000  Level FlightAware (EPLB / LUZ)
Tue 10:47:38 PM 42.4470 -79.6539 275° West 404 465 36,000  Level FlightAware (CYYZ)
Tue 10:48:07 PM 42.4516 -79.7292 275° West 405 466 36,000  Level FlightAware (CYYZ)
Tue 10:48:22 PM 42.4538 -79.7646 275° West 405 466 36,000  Level FlightAware (EPLB / LUZ)
Tue 10:48:37 PM 42.4562 -79.8037 275° West 405 466 36,000  Level FlightAware (CYYZ)
Tue 10:49:07 PM 42.4608 -79.8806 275° West 405 466 36,000  Level FlightAware (CYYZ)
Tue 10:49:13 PM 42.4616 -79.8920 275° West 405 466 36,000  Level FlightAware (EPLB / LUZ)
Tue 10:49:37 PM 42.4652 -79.9547 275° West 405 466 36,000  Level FlightAware (CYYZ)
Tue 10:49:48 PM 42.4665 -79.9777 274° West 405 466 36,000  Level FlightAware (EPLB / LUZ)
Tue 10:50:07 PM 42.4694 -80.0309 275° West 406 467 36,000  Level FlightAware (CYYZ)
Tue 10:50:26 PM 42.4691 -80.0259 274° West 407 468 36,000  Level FlightAware (EPLB / LUZ)
Tue 10:50:37 PM 42.4738 -80.1084 275° West 408 470 36,000  Level FlightAware (CYYZ)
Tue 10:50:59 PM 42.4752 -80.1335 275° West 408 470 36,000  Level FlightAware (CZBA)
Tue 10:51:07 PM 42.4781 -80.1840 275° West 409 471 36,000  Level FlightAware (CYYZ)
Tue 10:51:38 PM 42.4825 -80.2604 275° West 410 472 36,000  Level FlightAware (CYYZ)
Tue 10:52:07 PM 42.4867 -80.3363 275° West 413 475 36,000  Level FlightAware (CYYZ)
Tue 10:52:13 PM 42.4875 -80.3509 274° West 412 474 36,000  Level FlightAware (CYKF)
Tue 10:52:38 PM 42.4910 -80.4159 275° West 415 478 36,000  Level FlightAware (CYYZ)
Tue 10:52:50 PM 42.4927 -80.4476 274° West 415 478 36,000  Level FlightAware (EPLB / LUZ)
Tue 10:53:07 PM 42.4951 -80.4920 275° West 416 479 36,000  Level FlightAware (CYYZ)
Tue 10:53:31 PM 42.4977 -80.5418 274° West 417 480 36,000  Level FlightAware (EPLB / LUZ)
Tue 10:53:37 PM 42.4992 -80.5704 275° West 417 480 36,000  Level FlightAware (CYYZ)
Tue 10:54:08 PM 42.5034 -80.6492 275° West 417 480 36,000  Level FlightAware (CYYZ)
Tue 10:54:37 PM 42.5071 -80.7249 274° West 415 478 36,000  Level FlightAware (CYYZ)
Tue 10:54:40 PM 42.5062 -80.7048 274° West 416 479 36,000  Level FlightAware (EPLB / LUZ)
Tue 10:55:07 PM 42.5094 -80.8036 273° West 415 478 36,000  Level FlightAware (CYYZ)
Tue 10:55:36 PM 42.5113 -80.8784 272° West 414 476 36,000  Level FlightAware (CYYZ)
Tue 10:56:07 PM 42.5137 -80.9592 273° West 413 475 36,000  Level FlightAware (CYYZ)
Tue 10:56:37 PM 42.5159 -81.0350 273° West 413 475 36,000  Level FlightAware (CYYZ)
Tue 10:57:06 PM 42.5177 -81.0986 273° West 413 475 36,000  Level FlightAware (CYYZ)
Tue 10:57:14 PM 42.5186 -81.1301 272° West 413 475 36,000  Level FlightAware (CYKF)
Tue 10:57:37 PM 42.5201 -81.1850 273° West 415 478 36,000  Level FlightAware (CYYZ)
Tue 10:58:12 PM 42.5243 -81.2829 277° West 418 481 36,000  Level FlightAware (CYYZ)
Tue 10:58:53 PM 42.5345 -81.3730 279° West 420 483 36,000  Level FlightAware (CYYZ)
Tue 10:59:17 PM 42.5433 -81.4497 279° West 420 483 36,000  Level FlightAware (CYKF)
Tue 10:59:23 PM 42.5449 -81.4643 279° West 419 482 36,000  Level FlightAware (CYYZ)
Tue 10:59:53 PM 42.5536 -81.5405 279° West 417 480 36,000  Level FlightAware (CYYZ)
Tue 11:00:15 PM 42.5579 -81.5792 279° West 418 481 36,000  Level FlightAware (CYKF)
Tue 11:00:23 PM 42.5625 -81.6196 279° West 417 480 36,000  Level FlightAware (CYYZ)
Tue 11:00:53 PM 42.5710 -81.6967 279° West 416 479 36,000  Level FlightAware (CYYZ)
Tue 11:01:16 PM 42.5747 -81.7291 279° West 417 480 36,000  Level FlightAware (CYKF)
Tue 11:01:23 PM 42.5797 -81.7732 279° West 416 479 36,000  Level FlightAware (CYYZ)
Tue 11:01:52 PM 42.5885 -81.8520 279° West 417 480 36,000  Level FlightAware (CYYZ)
Tue 11:02:23 PM 42.5969 -81.9297 279° West 418 481 36,000  Level FlightAware (CYYZ)
Tue 11:02:25 PM 42.5880 -81.8484 279° West 421 484 36,000  Level FlightAware (EPLB / LUZ)
Tue 11:02:53 PM 42.6054 -82.0073 279° West 420 483 36,000  Level FlightAware (CYYZ)
Tue 11:03:00 PM 42.6045 -81.9989 279° West 421 484 36,000  Level FlightAware (EPLB / LUZ)
Tue 11:03:22 PM 42.6138 -82.0851 279° West 422 486 36,000  Level FlightAware (CYYZ)
Tue 11:03:53 PM 42.6219 -82.1596 279° West 425 489 36,000  Level FlightAware (CYYZ)
Tue 11:04:13 PM 42.6281 -82.2181 278° West 425 489 36,000  Level FlightAware (EPLB / LUZ)
Tue 11:04:22 PM 42.6294 -82.2304 279° West 425 489 36,000  Level FlightAware (CYYZ)
Tue 11:04:53 PM 42.6390 -82.3216 278° West 426 490 36,000  Level FlightAware (CYYZ)
Tue 11:05:23 PM 42.6470 -82.3970 279° West 425 489 36,000  Level FlightAware (CYYZ)
Tue 11:05:52 PM 42.6557 -82.4792 278° West 425 489 36,000  Level FlightAware (CYYZ)
Tue 11:06:22 PM 42.6640 -82.5593 279° West 425 489 36,000  Level FlightAware (CYYZ)
Tue 11:06:53 PM 42.6722 -82.6392 278° West 424 488 36,000  Level FlightAware (CYYZ)
Tue 11:07:22 PM 42.6802 -82.7171 278° West 422 486 36,000  Level FlightAware (CYYZ)
Tue 11:07:52 PM 42.6876 -82.7907 278° West 421 484 36,000  Level FlightAware (CYYZ)
Tue 11:08:19 PM 42.6908 -82.8217 278° West 421 484 36,000  Level FlightAware (CYYZ)
Tue 11:08:34 PM 42.6904 -82.8179 278° West 422 486 36,000  Level FlightAware (EPLB / LUZ)
Tue 11:12:37 PM 42.7712 -83.5419 279° West 424 488 36,000  Level FlightAware (CYYZ)
Tue 11:13:06 PM 42.7777 -83.5993 279° West 425 489 36,000  Level FlightAware (CYYZ)
Tue 11:13:37 PM 42.7818 -83.6358 279° West 426 490 36,000  Level FlightAware (CYYZ)
Tue 11:14:07 PM 42.7951 -83.7550 279° West 428 493 36,000  Level FlightAware (CYYZ)
Tue 11:16:43 PM 42.8468 -84.2260 278° West 423 487 36,000  Level FlightAware
Tue 11:17:19 PM 42.8571 -84.3227 278° West 424 488 36,000  Level FlightAware
Tue 11:19:21 PM 42.8778 -84.6441 266° West 428 493 36,000  Level FlightAware
Tue 11:20:19 PM 42.8615 -84.7993 262° West 430 495 36,000  Level FlightAware
Tue 11:21:42 PM 42.8450 -84.9580 262° West 432 497 36,000  Level FlightAware
Tue 11:22:21 PM 42.8461 -84.9470 262° West 431 496 36,000 -1,033 Level FlightAware
Tue 11:25:46 PM 42.7610 -85.6381 256° West 444 511 31,800 -1,602 Descending FlightAware
Tue 11:27:43 PM 42.7583 -85.6528 256° West 444 511 27,400 -2,000 Descending FlightAware
Tue 11:31:34 PM 42.5917 -86.5562 256° West 402 463 20,200 -1,835 Descending FlightAware
Tue 11:32:21 PM 42.5709 -86.6651 256° West 384 442 18,900 -1,636 Descending FlightAware
Tue 11:32:51 PM 42.5578 -86.7313 251° West 378 435 18,100 -1,676 Descending FlightAware
Tue 11:33:29 PM 42.5350 -86.8156 250° West 373 429 17,000 -1,600 Descending FlightAware
Tue 11:34:21 PM 42.5048 -86.9271 250° West 370 426 15,700 -1,537 Descending FlightAware
Tue 11:34:51 PM 42.4871 -86.9923 250° West 362 417 14,900 -1,574 Descending FlightAware
Tue 11:35:22 PM 42.4675 -87.0640 250° West 357 411 14,100 -1,574 Descending FlightAware
Tue 11:35:52 PM 42.4512 -87.1238 250° West 350 403 13,300 -1,500 Descending FlightAware
Tue 11:36:22 PM 42.4341 -87.1856 250° West 348 400 12,600 -1,377 Descending FlightAware
Tue 11:36:53 PM 42.4169 -87.2482 250° West 341 392 11,900 -1,377 Descending FlightAware
Tue 11:37:23 PM 42.4022 -87.3021 250° West 337 388 11,200 -900 Descending FlightAware
Tue 11:37:53 PM 42.3844 -87.3663 249° West 341 392 11,000 -200 Descending FlightAware
Tue 11:38:23 PM 42.3679 -87.4258 249° West 339 390 11,000  Level FlightAware
Tue 11:38:53 PM 42.3519 -87.4832 250° West 338 389 11,000  Level FlightAware
Tue 11:39:23 PM 42.3293 -87.5427 228° Southwest 348 400 11,000  Level FlightAware
Tue 11:39:53 PM 42.2938 -87.5821 218° Southwest 347 399 11,000  Level FlightAware
Tue 11:40:23 PM 42.2535 -87.6235 217° Southwest 347 399 11,000  Level FlightAware
Tue 11:40:53 PM 42.2170 -87.6613 218° Southwest 348 400 11,000  Level FlightAware
Tue 11:41:23 PM 42.1818 -87.6966 205° Southwest 354 407 11,000  Level FlightAware
Tue 11:41:53 PM 42.1287 -87.7185 194° South 357 411 11,000  Level FlightAware
Tue 11:42:23 PM 42.0807 -87.7343 194° South 357 411 11,000  Level FlightAware
Tue 11:42:43 PM 42.0498 -87.7499 212° Southwest 350 403 11,000  Level FlightAware
Tue 11:42:53 PM 42.0387 -87.7618 226° Southwest 335 386 11,000  Level FlightAware
Tue 11:43:03 PM 42.0295 -87.7780 238° Southwest 319 367 11,000 -800 Level FlightAware
Tue 11:43:08 PM 42.0248 -87.7912 249° West 312 359 10,800 -900 Descending FlightAware
Tue 11:43:23 PM 42.0211 -87.8156 263° West 296 341 10,700 -1,067 Descending FlightAware
Tue 11:43:53 PM 42.0172 -87.8674 265° West 271 312 10,000 -1,800 Descending FlightAware
Tue 11:44:13 PM 42.0155 -87.8997 270° West 266 306 9,200 -2,333 Descending FlightAware
Tue 11:44:29 PM 42.0168 -87.9274 275° West 261 300 8,600 -2,550 Descending FlightAware
Tue 11:44:53 PM 42.0189 -87.9621 274° West 263 303 7,500 -2,591 Descending FlightAware
Tue 11:45:13 PM 42.0208 -87.9974 274° West 263 303 6,700 -2,432 Descending FlightAware
Tue 11:45:30 PM 42.0222 -88.0248 274° West 261 300 6,000 -2,488 Descending FlightAware
Tue 11:45:54 PM 42.0241 -88.0634 274° West 260 299 5,000 -2,318 Descending FlightAware
Tue 11:46:14 PM 42.0256 -88.0953 274° West 257 296 4,300 -1,622 Descending FlightAware
Tue 11:46:31 PM 42.0269 -88.1226 273° West 250 288 4,000 -439 Descending FlightAware
Tue 11:46:55 PM 42.0249 -88.1588 248° West 235 270 4,000  Level FlightAware
Tue 11:47:05 PM 42.0194 -88.1700 227° Southwest 233 268 4,000  Level FlightAware
Tue 11:47:15 PM 42.0113 -88.1780 208° Southwest 236 272 4,000  Level FlightAware
Tue 11:47:25 PM 41.9997 -88.1824 186° South 239 275 4,000  Level FlightAware
Tue 11:47:31 PM 41.9931 -88.1821 171° South 240 276 4,000  Level FlightAware (EGPH / EDI)
Tue 11:47:45 PM 41.9792 -88.1741 141° Southeast 238 274 4,000  Level FlightAware
Tue 11:47:53 PM 41.9742 -88.1661 171° South 240 276 4,000 -300 Level FlightAware (EGPH / EDI)
Tue 11:48:05 PM 41.9703 -88.1515 101° East 231 266 3,900 -938 Descending FlightAware
Tue 11:48:25 PM 41.9686 -88.1204 91° East 225 259 3,500 -1,171 Descending FlightAware
Tue 11:48:46 PM 41.9686 -88.0916 90° East 215 247 3,100 -1,171 Descending FlightAware
Tue 11:49:06 PM 41.9686 -88.0658 90° East 203 234 2,700 -1,200 Descending FlightAware
Tue 11:49:26 PM 41.9687 -88.0438 90° East 182 209 2,300 -1,050 Descending FlightAware
Tue 11:49:46 PM 41.9688 -88.0208 90° East 164 189 2,000 -750 Descending FlightAware
Tue 11:50:06 PM 41.9688 -88.0020 90° East 143 165 1,800 -750 Descending FlightAware
Tue 11:50:26 PM 41.9688 -87.9850 90° East 135 155 1,500 -750 Descending FlightAware
Tue 11:50:46 PM 41.9689 -87.9680 90° East 133 153 1,300 -750 Descending FlightAware
Tue 11:51:06 PM 41.9689 -87.9521 90° East 135 155 1,000 -750 Descending FlightAware
Tue 11:51:26 PM 41.9690 -87.9355 90° East 138 159 800 -600 Descending FlightAware
Tue 11:59:00 PM 41.9667 -87.9000 143° Southeast  Level FlightAware

Login

Don't have an account? Register now (free) for customized features, flight alerts, and more!